createdAt,value
2022-09-10T00:01:26.980Z,18.45
2022-09-10T00:03:56.688Z,17.70
2022-09-10T00:06:27.863Z,18.35
2022-09-10T00:08:58.563Z,16.67
2022-09-10T00:11:32.812Z,18.95
2022-09-10T00:14:02.634Z,16.83
2022-09-10T00:16:32.305Z,17.45
2022-09-10T00:19:04.406Z,16.40
2022-09-10T00:21:35.778Z,16.02
2022-09-10T00:24:05.656Z,15.82
2022-09-10T00:26:38.354Z,16.80
2022-09-10T00:29:09.154Z,16.70
2022-09-10T00:34:07.413Z,15.18
2022-09-10T00:36:39.879Z,15.85
2022-09-10T00:39:10.126Z,16.38
2022-09-10T00:41:40.562Z,15.52
2022-09-10T00:44:48.293Z,15.18
2022-09-10T00:47:19.088Z,13.73
2022-09-10T00:49:51.002Z,13.88
2022-09-10T00:52:21.276Z,13.43
2022-09-10T00:54:50.122Z,9.63
2022-09-10T00:57:22.018Z,12.05
2022-09-10T00:59:53.540Z,12.23
2022-09-10T01:02:22.848Z,12.75
2022-09-10T01:04:51.859Z,12.35
2022-09-10T01:07:24.223Z,11.43
2022-09-10T01:09:53.136Z,11.57
2022-09-10T01:12:36.095Z,13.57
2022-09-10T01:15:17.001Z,11.55
2022-09-10T01:17:58.430Z,11.65
2022-09-10T01:20:47.726Z,12.77
2022-09-10T01:23:45.369Z,11.93
2022-09-10T01:26:21.829Z,11.45
2022-09-10T01:28:56.537Z,12.15
2022-09-10T01:31:31.398Z,11.32
2022-09-10T01:34:04.538Z,10.95
2022-09-10T01:36:36.884Z,11.05
2022-09-10T01:39:05.869Z,9.98
2022-09-10T01:41:34.804Z,9.15
2022-09-10T01:44:11.083Z,10.00
2022-09-10T01:46:48.517Z,11.00
2022-09-10T01:49:26.372Z,10.18
2022-09-10T01:52:10.615Z,10.00
2022-09-10T01:54:48.394Z,10.85
2022-09-10T01:57:27.973Z,11.35
2022-09-10T02:00:07.324Z,12.50
2022-09-10T02:02:45.695Z,11.88
2022-09-10T02:05:21.141Z,12.80
2022-09-10T02:10:24.197Z,13.00
2022-09-10T02:12:53.022Z,12.40
2022-09-10T02:15:39.291Z,13.60
2022-09-10T02:18:18.218Z,14.02
2022-09-10T02:20:47.529Z,14.52
2022-09-10T02:23:19.594Z,15.88
2022-09-10T02:25:49.264Z,13.93
2022-09-10T02:28:18.125Z,14.63
2022-09-10T02:30:48.887Z,15.25
2022-09-10T02:33:18.574Z,13.10
2022-09-10T02:35:47.964Z,14.20
2022-09-10T02:38:18.284Z,13.90
2022-09-10T02:40:49.210Z,14.30
2022-09-10T02:43:18.562Z,13.38
2022-09-10T02:45:48.900Z,15.27
2022-09-10T02:48:18.397Z,14.55
2022-09-10T02:50:47.372Z,13.70
2022-09-10T02:53:16.084Z,14.20
2022-09-10T02:55:46.284Z,13.57
2022-09-10T02:58:16.283Z,14.23
2022-09-10T03:00:48.950Z,14.43
2022-09-10T03:03:19.026Z,13.93
2022-09-10T03:05:48.044Z,14.00
2022-09-10T03:08:16.748Z,13.75
2022-09-10T03:13:15.669Z,13.60
2022-09-10T03:15:45.783Z,13.53
2022-09-10T03:18:16.899Z,14.35
2022-09-10T03:20:46.592Z,14.98
2022-09-10T03:23:15.687Z,15.63
2022-09-10T03:25:47.911Z,15.43
2022-09-10T03:28:20.228Z,15.98
2022-09-10T03:30:49.528Z,16.27
2022-09-10T03:33:21.860Z,15.98
2022-09-10T03:35:52.435Z,16.00
2022-09-10T03:38:21.368Z,15.57
2022-09-10T03:40:49.777Z,16.77
2022-09-10T03:43:19.966Z,16.10
2022-09-10T03:45:49.375Z,16.08
2022-09-10T03:48:20.892Z,17.02
2022-09-10T03:50:51.017Z,16.77
2022-09-10T03:53:21.878Z,17.33
2022-09-10T03:55:54.019Z,18.08
2022-09-10T03:58:23.196Z,14.32
2022-09-10T04:00:53.228Z,16.17
2022-09-10T04:03:23.394Z,14.98
2022-09-10T04:05:53.657Z,16.65
2022-09-10T04:08:22.567Z,16.17
2022-09-10T04:10:52.220Z,15.38
2022-09-10T04:13:21.103Z,16.40
2022-09-10T04:15:50.015Z,15.93
2022-09-10T04:18:19.092Z,15.77
2022-09-10T04:20:49.999Z,15.68
2022-09-10T04:23:18.606Z,14.70
2022-09-10T04:25:47.665Z,15.15
2022-09-10T04:28:16.426Z,14.75
2022-09-10T04:30:48.191Z,14.05
2022-09-10T04:33:17.149Z,15.45
2022-09-10T04:35:46.168Z,14.77
2022-09-10T04:38:16.960Z,13.90
2022-09-10T04:40:47.716Z,13.68
2022-09-10T04:43:17.520Z,15.80
2022-09-10T04:45:46.439Z,15.35
2022-09-10T04:48:15.217Z,14.95
2022-09-10T04:51:05.348Z,15.52
2022-09-10T04:53:40.670Z,16.27
2022-09-10T04:56:09.751Z,15.75
2022-09-10T05:01:09.593Z,17.17
2022-09-10T05:03:38.825Z,16.73
2022-09-10T05:06:08.921Z,18.42
2022-09-10T05:08:37.815Z,16.58
2022-09-10T05:11:08.407Z,18.10
2022-09-10T05:13:36.913Z,16.10
2022-09-10T05:16:07.866Z,15.00
2022-09-10T05:18:37.001Z,14.48
2022-09-10T05:21:06.792Z,15.15
2022-09-10T05:23:36.340Z,14.93
2022-09-10T05:26:04.979Z,13.65
2022-09-10T05:28:35.452Z,13.15
2022-09-10T05:31:09.788Z,12.32
2022-09-10T05:33:40.836Z,12.98
2022-09-10T05:36:12.289Z,15.38
2022-09-10T05:38:42.715Z,15.32
2022-09-10T05:41:12.099Z,17.15
2022-09-10T05:43:46.471Z,16.67
2022-09-10T05:46:15.422Z,16.63
2022-09-10T05:48:47.703Z,15.02
2022-09-10T05:51:17.424Z,13.88
2022-09-10T05:53:46.187Z,13.10
2022-09-10T05:56:17.420Z,12.35
2022-09-10T05:58:48.173Z,12.68
2022-09-10T06:03:46.012Z,10.35
2022-09-10T06:06:15.470Z,9.13
2022-09-10T06:08:52.498Z,8.95
2022-09-10T06:11:29.021Z,8.98
2022-09-10T06:13:59.220Z,9.38
2022-09-10T06:16:28.626Z,9.98
2022-09-10T06:18:59.762Z,10.03
2022-09-10T06:21:29.521Z,9.40
2022-09-10T06:23:59.622Z,9.13
2022-09-10T06:26:32.243Z,9.80
2022-09-10T06:29:07.335Z,9.90
2022-09-10T06:31:36.309Z,10.45
2022-09-10T06:34:05.669Z,10.15
2022-09-10T06:36:35.282Z,11.02
2022-09-10T06:39:04.071Z,12.48
2022-09-10T06:41:45.820Z,11.38
2022-09-10T06:44:30.483Z,10.30
2022-09-10T06:47:50.858Z,8.73
2022-09-10T06:50:01.965Z,8.80
2022-09-10T06:52:33.784Z,8.27
2022-09-10T06:55:06.786Z,7.68
2022-09-10T06:57:40.717Z,8.60
2022-09-10T07:00:14.352Z,7.78
2022-09-10T07:02:45.994Z,7.43
2022-09-10T07:05:14.762Z,7.85
2022-09-10T07:07:44.178Z,7.80
2022-09-10T07:10:14.755Z,7.93
2022-09-10T07:12:44.850Z,8.37
2022-09-10T07:17:44.082Z,9.67
2022-09-10T07:20:13.163Z,8.30
2022-09-10T07:22:49.399Z,9.18
2022-09-10T07:25:21.448Z,9.13
2022-09-10T07:27:55.643Z,9.45
2022-09-10T07:30:27.374Z,8.35
2022-09-10T07:32:57.144Z,9.77
2022-09-10T07:35:29.321Z,9.20
2022-09-10T07:37:58.174Z,9.30
2022-09-10T07:40:27.818Z,10.68
2022-09-10T07:42:56.949Z,9.05
2022-09-10T07:45:28.284Z,9.60
2022-09-10T07:47:57.102Z,12.00
2022-09-10T07:50:25.921Z,13.38
2022-09-10T07:52:55.631Z,14.13
2022-09-10T07:55:26.607Z,13.02
2022-09-10T07:57:59.559Z,13.88
2022-09-10T08:00:31.957Z,12.95
2022-09-10T08:03:06.975Z,12.93
2022-09-10T08:05:38.245Z,13.80
2022-09-10T08:08:07.738Z,14.60
2022-09-10T08:10:36.799Z,13.23
2022-09-10T08:13:05.546Z,13.63
2022-09-10T08:15:36.198Z,12.43
2022-09-10T08:18:05.734Z,12.23
2022-09-10T08:20:34.592Z,12.13
2022-09-10T08:23:03.499Z,11.43
2022-09-10T08:25:33.460Z,11.90
2022-09-10T08:28:02.924Z,10.02
2022-09-10T08:30:33.134Z,11.45
2022-09-10T08:33:03.615Z,11.20
2022-09-10T08:35:35.017Z,11.30
2022-09-10T08:38:03.955Z,11.65
2022-09-10T08:40:33.503Z,13.10
2022-09-10T08:43:02.654Z,13.07
2022-09-10T08:45:33.705Z,13.35
2022-09-10T08:48:09.410Z,11.82
2022-09-10T08:50:42.576Z,12.20
2022-09-10T08:53:26.011Z,12.45
2022-09-10T08:56:00.847Z,12.27
2022-09-10T08:58:33.995Z,12.57
2022-09-10T09:01:05.005Z,12.32
2022-09-10T09:03:38.681Z,11.80
2022-09-10T09:06:09.384Z,10.15
2022-09-10T09:08:48.588Z,10.95
2022-09-10T09:11:31.910Z,10.77
2022-09-10T09:14:17.003Z,10.68
2022-09-10T09:17:00.103Z,10.40
2022-09-10T09:19:34.116Z,11.20
2022-09-10T09:22:09.392Z,10.93
2022-09-10T09:24:46.375Z,11.93
2022-09-10T09:27:17.796Z,11.32
2022-09-10T09:29:51.445Z,11.63
2022-09-10T09:32:22.016Z,12.07
2022-09-10T09:34:55.882Z,12.35
2022-09-10T09:37:28.828Z,12.27
2022-09-10T09:40:07.226Z,12.50
2022-09-10T09:42:43.546Z,14.57
2022-09-10T09:45:23.517Z,12.55
2022-09-10T09:47:54.464Z,11.85
2022-09-10T09:50:24.762Z,12.43
2022-09-10T09:52:56.413Z,12.35
2022-09-10T09:55:31.186Z,11.52
2022-09-10T09:58:44.722Z,12.10
2022-09-10T10:01:15.990Z,10.80
2022-09-10T10:03:55.099Z,11.77
2022-09-10T10:06:26.856Z,10.85
2022-09-10T10:08:58.938Z,11.35
2022-09-10T10:11:55.593Z,11.63
2022-09-10T10:14:38.231Z,12.32
2022-09-10T10:17:39.995Z,10.85
2022-09-10T10:20:11.630Z,11.02
2022-09-10T10:22:42.459Z,12.82
2022-09-10T10:25:48.038Z,11.90
2022-09-10T10:28:21.501Z,11.90
2022-09-10T10:30:53.589Z,11.45
2022-09-10T10:33:29.510Z,10.40
2022-09-10T10:36:05.301Z,11.77
2022-09-10T10:38:38.029Z,10.38
2022-09-10T10:41:42.421Z,12.13
2022-09-10T10:44:29.696Z,10.15
2022-09-10T10:47:09.672Z,11.63
2022-09-10T10:49:50.220Z,11.65
2022-09-10T10:52:25.626Z,10.25
2022-09-10T10:55:06.266Z,10.93
2022-09-10T10:57:53.377Z,12.13
2022-09-10T11:00:22.285Z,12.75
2022-09-10T11:02:54.812Z,12.20
2022-09-10T11:05:31.205Z,12.52
2022-09-10T11:08:00.797Z,11.80
2022-09-10T11:10:35.329Z,12.13
2022-09-10T11:13:09.117Z,11.30
2022-09-10T11:20:29.978Z,12.48
2022-09-10T11:24:01.371Z,13.60
2022-09-10T11:30:36.753Z,15.30
2022-09-10T11:33:10.201Z,14.48
2022-09-10T11:35:41.397Z,14.32
2022-09-10T11:38:17.188Z,13.15
2022-09-10T11:40:48.341Z,15.20
2022-09-10T11:43:30.499Z,14.70
2022-09-10T11:46:03.180Z,15.27
2022-09-10T11:48:34.585Z,16.58
2022-09-10T11:51:06.754Z,16.38
2022-09-10T11:53:37.509Z,18.15
2022-09-10T11:56:31.860Z,17.87
2022-09-10T11:59:09.812Z,18.10
2022-09-10T12:01:52.985Z,17.48
2022-09-10T12:04:47.803Z,17.92
2022-09-10T12:07:26.983Z,17.40
2022-09-10T12:10:10.978Z,16.50
2022-09-10T12:12:44.107Z,14.43
2022-09-10T12:15:20.143Z,15.73
2022-09-10T12:17:53.638Z,15.48
2022-09-10T12:20:28.412Z,14.35
2022-09-10T12:22:57.307Z,14.65
2022-09-10T12:25:33.640Z,14.43
2022-09-10T12:28:08.059Z,14.05
2022-09-10T12:31:02.796Z,13.40
2022-09-10T12:34:12.449Z,15.68
2022-09-10T12:37:17.274Z,15.00
2022-09-10T12:39:46.042Z,13.20
2022-09-10T12:42:34.714Z,14.57
2022-09-10T12:45:03.365Z,11.85
2022-09-10T12:47:41.332Z,12.57
2022-09-10T12:50:23.716Z,11.93
2022-09-10T12:53:05.016Z,11.25
2022-09-10T12:55:42.105Z,10.68
2022-09-10T12:58:18.531Z,11.40
2022-09-10T13:00:59.533Z,11.23
2022-09-10T13:03:30.067Z,11.90
2022-09-10T13:06:01.823Z,11.02
2022-09-10T13:08:33.361Z,9.90
2022-09-10T13:11:16.450Z,10.27
2022-09-10T13:13:46.855Z,10.07
2022-09-10T13:16:18.391Z,10.20
2022-09-10T13:18:48.382Z,9.15
2022-09-10T13:21:55.702Z,9.93
2022-09-10T13:25:01.113Z,10.30
2022-09-10T13:27:43.033Z,9.95
2022-09-10T13:30:17.641Z,10.73
2022-09-10T13:32:50.143Z,10.13
2022-09-10T13:35:43.334Z,9.63
2022-09-10T13:38:28.081Z,9.75
2022-09-10T13:41:24.662Z,10.23
2022-09-10T13:44:17.013Z,9.60
2022-09-10T13:46:48.101Z,9.00
2022-09-10T13:49:20.903Z,9.23
2022-09-10T13:51:52.984Z,10.23
2022-09-10T13:54:31.250Z,9.80
2022-09-10T13:57:04.911Z,9.02
2022-09-10T13:59:34.994Z,9.27
2022-09-10T14:02:03.718Z,8.52
2022-09-10T14:04:35.715Z,9.18
2022-09-10T14:07:07.029Z,10.45
2022-09-10T14:09:37.799Z,10.20
2022-09-10T14:12:09.145Z,9.38
2022-09-10T14:14:40.305Z,9.98
2022-09-10T14:17:12.026Z,11.07
2022-09-10T14:19:44.639Z,10.18
2022-09-10T14:22:17.453Z,9.55
2022-09-10T14:24:51.531Z,11.05
2022-09-10T14:27:28.220Z,10.00
2022-09-10T14:29:58.335Z,8.43
2022-09-10T14:32:31.900Z,10.05
2022-09-10T14:35:03.599Z,9.75
2022-09-10T14:37:38.253Z,10.30
2022-09-10T14:40:18.539Z,9.55
2022-09-10T14:42:48.383Z,9.40
2022-09-10T14:45:39.540Z,10.85
2022-09-10T14:48:41.060Z,8.25
2022-09-10T14:51:18.065Z,9.43
2022-09-10T14:53:47.738Z,9.52
2022-09-10T14:56:24.170Z,8.02
2022-09-10T14:58:58.454Z,9.38
2022-09-10T15:01:27.341Z,9.02
2022-09-10T15:03:56.120Z,9.27
2022-09-10T15:06:26.771Z,8.70
2022-09-10T15:08:57.310Z,9.60
2022-09-10T15:13:58.892Z,10.70
2022-09-10T15:16:27.760Z,10.52
2022-09-10T15:18:57.852Z,8.82
2022-09-10T15:21:26.711Z,11.05
2022-09-10T15:23:55.326Z,10.30
2022-09-10T15:26:23.920Z,10.10
2022-09-10T15:28:53.893Z,10.85
2022-09-10T15:31:23.403Z,10.77
2022-09-10T15:33:52.680Z,9.73
2022-09-10T15:36:22.510Z,10.75
2022-09-10T15:38:54.306Z,11.02
2022-09-10T15:41:23.155Z,10.95
2022-09-10T15:43:51.440Z,10.95
2022-09-10T15:46:24.453Z,11.77
2022-09-10T15:48:53.317Z,12.07
2022-09-10T15:51:24.191Z,12.43
2022-09-10T15:53:54.420Z,12.82
2022-09-10T15:56:24.957Z,13.05
2022-09-10T15:58:55.186Z,13.60
2022-09-10T16:01:26.356Z,14.15
2022-09-10T16:03:56.473Z,14.57
2022-09-10T16:06:27.446Z,13.25
2022-09-10T16:08:57.863Z,11.63
2022-09-10T16:13:55.133Z,11.90
2022-09-10T16:16:27.304Z,11.50
2022-09-10T16:18:56.281Z,11.57
2022-09-10T16:21:26.262Z,11.70
2022-09-10T16:23:56.887Z,16.83
2022-09-10T16:26:27.963Z,11.90
2022-09-10T16:28:57.928Z,11.63
2022-09-10T16:31:29.098Z,11.20
2022-09-10T16:33:59.821Z,11.52
2022-09-10T16:36:28.564Z,11.57
2022-09-10T16:38:58.472Z,11.07
2022-09-10T16:41:27.388Z,12.27
2022-09-10T16:43:58.374Z,13.38
2022-09-10T16:46:29.070Z,13.70
2022-09-10T16:48:58.641Z,14.65
2022-09-10T16:51:28.849Z,14.82
2022-09-10T16:54:01.814Z,14.85
2022-09-10T16:56:31.565Z,15.48
2022-09-10T16:59:00.228Z,16.63
2022-09-10T17:01:31.179Z,16.50
2022-09-10T17:04:00.325Z,16.35
2022-09-10T17:06:29.994Z,17.92
2022-09-10T17:09:00.163Z,17.40
2022-09-10T17:11:31.575Z,15.93
2022-09-10T17:14:02.500Z,16.42
2022-09-10T17:16:33.891Z,16.10
2022-09-10T17:19:04.024Z,17.48
2022-09-10T17:21:34.651Z,17.42
2022-09-10T17:24:05.019Z,18.73
2022-09-10T17:26:34.323Z,17.88
2022-09-10T17:29:04.828Z,14.48
2022-09-10T17:31:34.974Z,16.17
2022-09-10T17:34:03.914Z,14.27
2022-09-10T17:36:33.669Z,15.55
2022-09-10T17:39:02.435Z,15.05
2022-09-10T17:41:31.736Z,14.18
2022-09-10T17:44:00.828Z,16.27
2022-09-10T17:46:31.291Z,15.93
2022-09-10T17:49:02.093Z,17.25
2022-09-10T17:51:32.004Z,17.27
2022-09-10T17:54:02.618Z,16.60
2022-09-10T17:56:31.685Z,17.33
2022-09-10T17:59:02.524Z,17.08
2022-09-10T18:04:04.231Z,17.15
2022-09-10T18:06:36.294Z,17.75
2022-09-10T18:09:05.901Z,17.73
2022-09-10T18:11:37.122Z,17.13
2022-09-10T18:14:06.033Z,16.77
2022-09-10T18:16:36.431Z,18.52
2022-09-10T18:19:13.931Z,16.88
2022-09-10T18:21:44.490Z,17.05
2022-09-10T18:24:18.272Z,17.92
2022-09-10T18:26:48.599Z,17.20
2022-09-10T18:31:48.310Z,17.27
2022-09-10T18:34:23.216Z,15.75
2022-09-10T18:36:54.940Z,16.75
2022-09-10T18:39:23.926Z,16.10
2022-09-10T18:41:53.019Z,16.30
2022-09-10T18:44:23.021Z,17.05
2022-09-10T18:46:53.116Z,16.35
2022-09-10T18:51:52.484Z,15.55
2022-09-10T18:54:22.519Z,15.80
2022-09-10T18:56:53.409Z,14.25
2022-09-10T18:59:23.643Z,15.38
2022-09-10T19:01:53.891Z,13.85
2022-09-10T19:04:26.022Z,14.85
2022-09-10T19:06:54.930Z,14.10
2022-09-10T19:09:24.882Z,14.57
2022-09-10T19:11:54.915Z,14.18
2022-09-10T19:14:26.277Z,14.43
2022-09-10T19:16:56.447Z,15.32
2022-09-10T19:19:28.679Z,13.85
2022-09-10T19:21:59.547Z,13.90
2022-09-10T19:24:50.947Z,14.40
2022-09-10T19:27:18.234Z,14.88
2022-09-10T19:29:47.400Z,14.27
2022-09-10T19:32:17.227Z,14.73
2022-09-10T19:34:47.046Z,13.60
2022-09-10T19:37:15.776Z,15.15
2022-09-10T19:39:44.602Z,12.75
2022-09-10T19:42:13.713Z,11.93
2022-09-10T19:44:42.362Z,11.23
2022-09-10T19:47:10.923Z,10.40
2022-09-10T19:49:39.240Z,10.65
2022-09-10T19:52:11.171Z,9.10
2022-09-10T19:54:39.937Z,9.50
2022-09-10T19:57:08.573Z,8.88
2022-09-10T19:59:37.162Z,9.02
2022-09-10T20:02:05.870Z,9.05
2022-09-10T20:04:34.247Z,8.05
2022-09-10T20:07:05.518Z,7.95
2022-09-10T20:09:39.708Z,8.60
2022-09-10T20:12:09.381Z,8.20
2022-09-10T20:14:38.232Z,9.02
2022-09-10T20:17:06.926Z,7.97
2022-09-10T20:19:35.265Z,7.88
2022-09-10T20:22:03.823Z,7.82
2022-09-10T20:24:32.517Z,9.00
2022-09-10T20:27:02.437Z,9.23
2022-09-10T20:29:33.004Z,9.93
2022-09-10T20:34:29.593Z,10.00
2022-09-10T20:36:58.195Z,12.02
2022-09-10T20:39:27.063Z,13.27
2022-09-10T20:41:55.625Z,11.80
2022-09-10T20:44:26.238Z,10.77
2022-09-10T20:46:54.457Z,12.93
2022-09-10T20:49:23.069Z,11.30
2022-09-10T20:51:52.548Z,11.75
2022-09-10T20:54:21.124Z,12.23
2022-09-10T20:56:49.855Z,13.65
2022-09-10T20:59:19.342Z,14.93
2022-09-10T21:01:50.960Z,14.68
2022-09-10T21:04:19.985Z,14.82
2022-09-10T21:06:48.570Z,14.88
2022-09-10T21:09:17.571Z,15.70
2022-09-10T21:11:46.463Z,14.23
2022-09-10T21:14:15.434Z,13.48
2022-09-10T21:16:43.712Z,13.05
2022-09-10T21:19:15.203Z,11.77
2022-09-10T21:21:45.183Z,12.20
2022-09-10T21:24:14.701Z,11.02
2022-09-10T21:26:44.276Z,12.20
2022-09-10T21:29:14.480Z,11.53
2022-09-10T21:31:43.549Z,10.80
2022-09-10T21:34:14.027Z,11.48
2022-09-10T21:39:15.184Z,12.73
2022-09-10T21:41:45.219Z,11.23
2022-09-10T21:44:15.269Z,10.77
2022-09-10T21:46:43.887Z,11.77
2022-09-10T21:49:14.300Z,10.50
2022-09-10T21:54:15.486Z,11.07
2022-09-10T21:56:44.105Z,10.80
2022-09-10T21:59:14.780Z,11.52
2022-09-10T22:04:17.855Z,11.55
2022-09-10T22:06:51.812Z,12.70
2022-09-10T22:09:21.406Z,12.10
2022-09-10T22:11:52.058Z,11.90
2022-09-10T22:14:22.108Z,12.68
2022-09-10T22:16:50.475Z,13.85
2022-09-10T22:19:21.789Z,12.25
2022-09-10T22:21:51.039Z,12.60
2022-09-10T22:24:19.616Z,11.48
2022-09-10T22:26:48.438Z,13.15
2022-09-10T22:29:18.286Z,11.23
2022-09-10T22:31:47.314Z,10.87
2022-09-10T22:34:16.945Z,12.32
2022-09-10T22:36:48.533Z,12.03
2022-09-10T22:39:18.770Z,12.23
2022-09-10T22:41:47.752Z,11.50
2022-09-10T22:44:17.808Z,12.25
2022-09-10T22:46:46.185Z,11.75
2022-09-10T22:49:16.164Z,14.55
2022-09-10T22:51:46.347Z,13.32
2022-09-10T22:54:15.308Z,13.48
2022-09-10T22:56:44.634Z,12.95
2022-09-10T22:59:14.766Z,12.40
2022-09-10T23:01:47.436Z,12.85
2022-09-10T23:04:16.458Z,11.38
2022-09-10T23:06:46.461Z,12.02
2022-09-10T23:09:17.462Z,12.45
2022-09-10T23:11:46.175Z,13.02
2022-09-10T23:14:17.814Z,13.07
2022-09-10T23:16:48.300Z,12.38
2022-09-10T23:19:18.881Z,11.73
2022-09-10T23:21:51.206Z,13.25
2022-09-10T23:24:22.008Z,13.82
2022-09-10T23:26:50.831Z,13.27
2022-09-10T23:29:21.604Z,14.15
2022-09-10T23:34:22.234Z,15.55
2022-09-10T23:36:53.187Z,16.25
2022-09-10T23:39:22.811Z,17.63
2022-09-10T23:41:52.467Z,15.00
2022-09-10T23:44:21.186Z,15.37
2022-09-10T23:46:50.000Z,14.07
2022-09-10T23:49:18.642Z,15.30
2022-09-10T23:51:47.205Z,16.10
2022-09-10T23:54:17.330Z,15.43
2022-09-10T23:56:45.947Z,16.52
2022-09-10T23:59:15.364Z,15.52
